Time;durP1;ratioP1;P1;durP2;ratioP2;P2;SDS_P1;SDS_P2;PMS_P1;PMS_P2;Temp;Humidity;BMP_temperature;BMP_pressure;BME280_temperature;BME280_humidity;BME280_pressure;Samples;Min_cycle;Max_cycle;Signal;HPM_P1;HPM_P2
2020/12/29 00:01:36;;;;;;;6.30;5.60;;;;;;;-1.22;87.22;92118.00;4973583;28;20537;-78
2020/12/29 00:04:03;;;;;;;7.70;5.40;;;;;;;-1.18;87.17;92123.56;4991225;28;20194;-78
2020/12/29 00:06:28;;;;;;;6.50;4.50;;;;;;;-1.19;87.00;92116.88;4993288;28;20200;-78
2020/12/29 00:08:54;;;;;;;6.43;5.07;;;;;;;-1.22;87.03;92115.47;4992652;28;20264;-78
2020/12/29 00:11:19;;;;;;;6.80;4.73;;;;;;;-1.22;87.26;92107.03;5010421;28;20212;-78
2020/12/29 00:13:44;;;;;;;7.00;5.00;;;;;;;-1.20;87.12;92102.56;5007969;28;20268;-78
2020/12/29 00:16:10;;;;;;;6.67;4.73;;;;;;;-1.25;86.97;92092.84;5008742;28;20205;-78
2020/12/29 00:18:35;;;;;;;6.40;4.80;;;;;;;-1.19;86.95;92091.44;5016000;28;20199;-78
2020/12/29 00:21:01;;;;;;;6.60;4.63;;;;;;;-1.21;87.22;92093.34;5006689;28;20230;-78
2020/12/29 00:23:27;;;;;;;6.17;4.60;;;;;;;-1.28;87.18;92090.66;5007454;28;20202;-77
2020/12/29 00:25:52;;;;;;;6.70;4.50;;;;;;;-1.23;87.04;92103.69;4998885;28;20217;-77
2020/12/29 00:28:18;;;;;;;6.73;4.63;;;;;;;-1.31;87.61;92093.53;4993783;28;20281;-78
2020/12/29 00:30:43;;;;;;;5.23;4.20;;;;;;;-1.24;87.60;92106.38;5010425;28;20226;-78
2020/12/29 00:33:08;;;;;;;4.30;3.90;;;;;;;-1.23;87.94;92092.72;4993825;28;20541;-78
2020/12/29 00:35:33;;;;;;;4.67;4.17;;;;;;;-1.20;88.04;92097.47;5007882;28;20206;-77
2020/12/29 00:37:59;;;;;;;5.47;4.47;;;;;;;-1.18;87.87;92100.66;5011507;28;20205;-77
2020/12/29 00:40:24;;;;;;;6.57;4.90;;;;;;;-1.19;88.29;92102.41;5008919;28;20310;-78
2020/12/29 00:42:49;;;;;;;4.83;4.20;;;;;;;-1.20;88.11;92112.75;5011497;28;20199;-77
2020/12/29 00:45:14;;;;;;;6.03;5.23;;;;;;;-1.29;87.82;92108.63;5011772;28;20691;-77
2020/12/29 00:47:40;;;;;;;4.97;3.90;;;;;;;-1.25;88.07;92120.84;5009950;28;20186;-78
2020/12/29 00:50:05;;;;;;;5.27;4.57;;;;;;;-1.38;88.25;92123.09;4994621;28;20213;-78
2020/12/29 00:52:30;;;;;;;5.33;4.73;;;;;;;-1.34;88.34;92132.00;4991001;28;20198;-77
2020/12/29 00:54:56;;;;;;;6.70;4.77;;;;;;;-1.24;88.43;92116.56;4992093;28;20189;-78
2020/12/29 00:57:21;;;;;;;7.10;5.53;;;;;;;-1.22;88.52;92117.22;4997136;28;20190;-78
2020/12/29 00:59:46;;;;;;;5.40;4.53;;;;;;;-1.22;88.47;92114.66;5010198;28;20720;-77
2020/12/29 01:02:11;;;;;;;6.43;4.57;;;;;;;-1.18;88.65;92119.25;5010479;28;20188;-78
2020/12/29 01:04:37;;;;;;;4.20;3.77;;;;;;;-1.22;88.53;92128.19;5011683;28;20182;-77
2020/12/29 01:07:03;;;;;;;6.23;4.37;;;;;;;-1.19;88.37;92137.25;5009598;28;20575;-77
2020/12/29 01:09:28;;;;;;;5.33;4.53;;;;;;;-1.14;88.79;92124.84;5009244;28;20236;-78
2020/12/29 01:11:53;;;;;;;5.37;4.70;;;;;;;-1.17;88.83;92131.03;5011088;28;20552;-77
2020/12/29 01:14:19;;;;;;;5.50;4.60;;;;;;;-1.14;88.99;92137.59;4997774;28;20182;-77
2020/12/29 01:16:46;;;;;;;8.30;5.07;;;;;;;-1.07;88.70;92142.81;5014035;28;20714;-77
2020/12/29 01:19:11;;;;;;;4.33;3.93;;;;;;;-1.00;89.20;92142.00;5020707;28;20266;-77
2020/12/29 01:21:36;;;;;;;5.90;4.37;;;;;;;-1.03;88.81;92157.63;5014027;28;20662;-78
2020/12/29 01:24:01;;;;;;;4.67;3.47;;;;;;;-0.99;89.66;92153.78;4997555;28;20190;-77
2020/12/29 01:26:27;;;;;;;3.87;2.80;;;;;;;-0.96;89.36;92150.94;4997273;28;20207;-77
2020/12/29 01:28:53;;;;;;;2.53;1.80;;;;;;;-0.97;89.54;92146.78;5011900;28;20203;-76
2020/12/29 01:31:29;;;;;;;1.60;1.23;;;;;;;-0.82;89.39;92146.91;5011605;28;20588;-76
2020/12/29 01:33:55;;;;;;;1.17;1.07;;;;;;;-0.75;89.28;92140.22;5013958;28;20190;-76
2020/12/29 01:36:21;;;;;;;1.23;1.10;;;;;;;-0.74;89.28;92151.97;4997300;28;20213;-76
2020/12/29 01:38:46;;;;;;;1.00;0.90;;;;;;;-0.70;89.09;92166.00;5013510;28;20186;-75
2020/12/29 01:41:11;;;;;;;1.00;0.90;;;;;;;-0.73;88.80;92168.06;5011612;28;20186;-75
2020/12/29 01:43:37;;;;;;;1.17;0.90;;;;;;;-0.73;88.99;92162.97;5002065;28;20186;-76
2020/12/29 01:46:02;;;;;;;1.17;1.07;;;;;;;-0.81;89.08;92171.41;4995249;28;20556;-75
2020/12/29 01:48:28;;;;;;;1.20;1.10;;;;;;;-0.81;89.14;92160.44;4995287;28;20183;-74
2020/12/29 01:50:54;;;;;;;1.97;1.27;;;;;;;-0.81;88.97;92160.44;5005952;28;20220;-77
2020/12/29 01:53:19;;;;;;;2.10;1.90;;;;;;;-0.84;89.21;92168.41;5015817;28;20186;-74
2020/12/29 01:55:44;;;;;;;3.23;2.40;;;;;;;-0.91;89.28;92166.50;5013662;28;20352;-77
2020/12/29 01:58:10;;;;;;;2.87;2.50;;;;;;;-0.92;89.21;92164.13;4997118;28;20246;-77
2020/12/29 02:00:36;;;;;;;2.40;2.20;;;;;;;-0.92;89.21;92154.72;5011136;28;20190;-75
2020/12/29 02:03:01;;;;;;;2.17;1.87;;;;;;;-0.93;89.28;92153.13;5013376;28;20312;-77
2020/12/29 02:05:27;;;;;;;2.00;1.80;;;;;;;-0.99;88.89;92161.41;4996628;28;20208;-75
2020/12/29 02:07:53;;;;;;;2.20;2.00;;;;;;;-1.02;89.45;92159.19;5013137;28;20190;-75
2020/12/29 02:10:18;;;;;;;2.50;2.30;;;;;;;-1.09;89.35;92176.06;4997139;28;20211;-75
2020/12/29 02:12:43;;;;;;;2.17;1.97;;;;;;;-1.03;89.43;92169.56;5013179;28;20676;-75
2020/12/29 02:15:09;;;;;;;2.27;1.80;;;;;;;-1.02;89.76;92179.56;5014157;28;20206;-75
2020/12/29 02:17:34;;;;;;;2.20;1.90;;;;;;;-0.96;89.54;92184.03;5014281;28;20205;-75
2020/12/29 02:20:00;;;;;;;0.90;0.80;;;;;;;-0.70;89.14;92181.28;5012870;28;20171;-74
2020/12/29 02:22:27;;;;;;;0.70;0.70;;;;;;;-0.67;88.76;92173.31;5010218;28;20206;-74
2020/12/29 02:24:54;;;;;;;0.80;0.70;;;;;;;-0.66;88.71;92184.31;5013957;28;20183;-74
2020/12/29 02:27:20;;;;;;;0.80;0.80;;;;;;;-0.63;88.65;92196.72;5012730;28;20179;-74
2020/12/29 02:29:46;;;;;;;1.47;0.80;;;;;;;-0.73;88.69;92191.00;5012714;28;20218;-74
2020/12/29 02:32:12;;;;;;;1.13;0.83;;;;;;;-0.79;88.94;92191.66;5010741;28;20197;-74
2020/12/29 02:34:38;;;;;;;1.40;1.30;;;;;;;-0.81;88.98;92191.00;5004008;28;20708;-74
2020/12/29 02:37:05;;;;;;;3.07;1.53;;;;;;;-0.74;88.94;92184.31;4996330;28;20294;-74
2020/12/29 02:39:31;;;;;;;1.40;1.30;;;;;;;-0.82;88.85;92191.97;5013823;28;20171;-75
2020/12/29 02:41:56;;;;;;;1.50;1.20;;;;;;;-0.86;89.20;92187.19;5012657;28;20198;-75
2020/12/29 02:44:22;;;;;;;2.10;1.73;;;;;;;-0.84;89.25;92192.13;5012188;28;20229;-75
2020/12/29 02:46:48;;;;;;;2.23;1.70;;;;;;;-0.95;89.14;92185.63;5000397;28;20199;-75
2020/12/29 02:49:14;;;;;;;2.20;1.70;;;;;;;-0.87;89.46;92183.06;5009051;28;20210;-74
2020/12/29 02:51:39;;;;;;;2.60;1.37;;;;;;;-0.87;89.44;92183.06;4992840;28;20176;-74
2020/12/29 02:54:05;;;;;;;0.97;0.97;;;;;;;-0.79;89.34;92194.22;4998959;28;20592;-74
2020/12/29 02:56:30;;;;;;;1.83;1.20;;;;;;;-0.79;88.84;92189.91;5012144;28;20215;-74
2020/12/29 02:58:55;;;;;;;1.27;1.10;;;;;;;-0.86;89.01;92191.50;5013257;28;20210;-74
2020/12/29 03:01:21;;;;;;;0.90;0.87;;;;;;;-0.87;89.15;92195.00;5013348;28;20183;-75
2020/12/29 03:03:46;;;;;;;0.77;0.77;;;;;;;-0.80;89.05;92203.56;5012217;28;20182;-75
2020/12/29 03:06:11;;;;;;;1.07;0.90;;;;;;;-0.86;88.92;92206.78;5001889;28;20217;-75
2020/12/29 03:08:36;;;;;;;1.00;0.80;;;;;;;-0.79;88.76;92217.13;5013332;28;20221;-76
2020/12/29 03:11:04;;;;;;;0.67;0.67;;;;;;;-0.72;88.39;92215.50;5013188;28;20662;-75
2020/12/29 03:13:29;;;;;;;0.70;0.70;;;;;;;-0.62;88.29;92213.59;5012110;28;20639;-75
2020/12/29 03:15:54;;;;;;;0.77;0.70;;;;;;;-0.51;87.69;92222.66;5009824;28;20214;-75
2020/12/29 03:18:20;;;;;;;0.60;0.60;;;;;;;-0.55;87.95;92240.00;5011809;28;20218;-75
2020/12/29 03:20:45;;;;;;;1.33;0.73;;;;;;;-0.53;87.98;92238.13;5012900;28;20182;-76
2020/12/29 03:23:10;;;;;;;0.40;0.40;;;;;;;-0.31;87.10;92247.63;5011858;28;20206;-75
2020/12/29 03:25:36;;;;;;;0.40;0.40;;;;;;;-0.29;87.24;92248.25;5009774;28;20277;-75
2020/12/29 03:28:02;;;;;;;0.93;0.50;;;;;;;-0.31;87.18;92251.94;5011250;28;20221;-75
2020/12/29 03:30:27;;;;;;;0.33;0.33;;;;;;;-0.29;87.23;92248.25;4993951;28;20646;-75
2020/12/29 03:32:52;;;;;;;0.53;0.30;;;;;;;-0.30;87.28;92261.97;4993435;28;20549;-75
2020/12/29 03:35:17;;;;;;;0.37;0.37;;;;;;;-0.28;87.38;92259.25;4992491;28;20574;-75
2020/12/29 03:37:43;;;;;;;0.90;0.40;;;;;;;-0.19;87.21;92252.38;5013247;28;20191;-74
2020/12/29 03:40:08;;;;;;;1.77;0.60;;;;;;;-0.24;87.22;92263.06;4994842;28;20224;-75
2020/12/29 03:42:33;;;;;;;0.40;0.40;;;;;;;-0.25;86.95;92255.59;4994950;28;20179;-74
2020/12/29 03:44:59;;;;;;;0.27;0.27;;;;;;;-0.30;87.22;92267.06;5012557;28;20592;-74
2020/12/29 03:47:24;;;;;;;0.20;0.20;;;;;;;-0.20;87.28;92266.88;4992516;28;20255;-75
2020/12/29 03:49:49;;;;;;;0.30;0.30;;;;;;;-0.23;86.99;92267.22;5012384;28;20282;-75
2020/12/29 03:52:15;;;;;;;0.40;0.30;;;;;;;-0.23;87.05;92269.75;4994901;28;20190;-75
2020/12/29 03:54:40;;;;;;;0.30;0.30;;;;;;;-0.20;86.99;92269.44;5012642;28;20206;-75
2020/12/29 03:57:05;;;;;;;0.30;0.30;;;;;;;-0.10;86.43;92277.69;5011199;28;20210;-75
2020/12/29 03:59:31;;;;;;;0.30;0.30;;;;;;;-0.11;86.71;92276.09;5009103;28;20201;-75
2020/12/29 04:01:56;;;;;;;0.70;0.30;;;;;;;-0.01;86.23;92286.13;4997971;28;20659;-75
2020/12/29 04:04:21;;;;;;;0.30;0.30;;;;;;;-0.11;86.35;92285.50;4991577;28;20191;-75
2020/12/29 04:06:46;;;;;;;0.30;0.30;;;;;;;-0.06;86.10;92294.28;4992674;28;20203;-75
2020/12/29 04:09:12;;;;;;;0.30;0.30;;;;;;;-0.07;86.39;92291.88;5007287;28;20245;-75
2020/12/29 04:11:37;;;;;;;0.30;0.30;;;;;;;-0.12;86.36;92294.91;5012246;28;20348;-75
2020/12/29 04:14:02;;;;;;;0.57;0.47;;;;;;;-0.12;86.64;92289.03;5010992;28;20193;-74
2020/12/29 04:16:28;;;;;;;0.80;0.50;;;;;;;-0.05;86.09;92290.75;5010971;28;20237;-75
2020/12/29 04:18:53;;;;;;;0.50;0.33;;;;;;;-0.11;86.06;92276.09;5010317;28;20178;-75
2020/12/29 04:21:18;;;;;;;0.37;0.37;;;;;;;-0.14;86.30;92286.63;5010734;28;20233;-75
2020/12/29 04:23:44;;;;;;;0.30;0.30;;;;;;;-0.16;86.62;92285.22;5010968;28;20580;-75
2020/12/29 04:26:13;;;;;;;0.30;0.30;;;;;;;-0.13;86.54;92288.22;5011567;28;20210;-75
2020/12/29 04:28:39;;;;;;;0.73;0.47;;;;;;;-0.06;86.01;92289.16;5011677;28;20701;-75
2020/12/29 04:31:04;;;;;;;1.00;0.30;;;;;;;-0.01;86.24;92291.22;5008954;28;20214;-75
2020/12/29 04:33:30;;;;;;;1.40;0.33;;;;;;;0.11;85.29;92294.22;5010718;28;20190;-75
2020/12/29 04:35:55;;;;;;;0.20;0.20;;;;;;;0.07;85.32;92303.94;4994252;28;20206;-75
2020/12/29 04:38:20;;;;;;;1.27;0.30;;;;;;;0.03;85.53;92299.34;5011995;28;20179;-75
2020/12/29 04:40:46;;;;;;;0.33;0.30;;;;;;;-0.02;85.80;92318.47;5010507;28;20223;-75
2020/12/29 04:43:11;;;;;;;0.30;0.30;;;;;;;0.07;85.83;92315.91;5011880;28;20325;-75
2020/12/29 04:45:36;;;;;;;1.13;0.50;;;;;;;-0.01;85.88;92332.03;5012324;28;20542;-76
2020/12/29 04:48:02;;;;;;;1.17;0.30;;;;;;;-0.01;85.84;92327.72;5014793;28;20280;-75
2020/12/29 04:50:30;;;;;;;0.60;0.40;;;;;;;0.02;85.57;92326.63;5014404;28;20294;-75
2020/12/29 04:52:57;;;;;;;1.37;0.40;;;;;;;0.02;85.60;92331.72;5028785;28;20662;-75
2020/12/29 04:55:28;;;;;;;1.50;0.90;;;;;;;0.00;85.10;92331.09;4996451;28;20215;-75
2020/12/29 04:57:54;;;;;;;0.30;0.30;;;;;;;0.01;85.42;92335.25;5011357;28;20214;-75
2020/12/29 05:00:19;;;;;;;0.50;0.50;;;;;;;0.07;84.92;92344.78;4994726;28;20171;-75
2020/12/29 05:02:48;;;;;;;0.87;0.50;;;;;;;0.09;85.21;92353.09;4991980;28;20187;-75
2020/12/29 05:05:13;;;;;;;0.93;0.60;;;;;;;-0.01;86.08;92355.00;5013074;28;20269;-75
2020/12/29 05:07:38;;;;;;;0.40;0.30;;;;;;;-0.02;85.78;92361.06;5015544;28;20269;-75
2020/12/29 05:10:05;;;;;;;0.47;0.30;;;;;;;-0.02;86.03;92350.84;4998010;28;20585;-75
2020/12/29 05:12:31;;;;;;;0.50;0.50;;;;;;;0.00;85.88;92364.25;5013252;28;20206;-75
2020/12/29 05:14:56;;;;;;;0.20;0.20;;;;;;;0.02;85.56;92366.66;5014034;28;20191;-75
2020/12/29 05:17:22;;;;;;;0.30;0.30;;;;;;;-0.05;86.22;92363.94;5014268;28;20210;-75
2020/12/29 05:19:47;;;;;;;0.40;0.40;;;;;;;-0.07;86.43;92365.88;5013885;28;20176;-75
2020/12/29 05:22:13;;;;;;;0.40;0.40;;;;;;;-0.10;86.33;92363.63;5015128;28;20194;-75
2020/12/29 05:24:45;;;;;;;0.40;0.40;;;;;;;-0.09;86.14;92377.97;5013122;28;20219;-75
2020/12/29 05:27:10;;;;;;;0.87;0.40;;;;;;;-0.10;86.19;92379.72;4997240;28;20218;-75
2020/12/29 05:29:35;;;;;;;0.87;0.47;;;;;;;-0.08;86.17;92394.88;4993954;28;20586;-75
2020/12/29 05:32:01;;;;;;;0.93;0.40;;;;;;;0.00;85.71;92394.88;4994703;28;20193;-75
2020/12/29 05:34:28;;;;;;;0.23;0.23;;;;;;;-0.04;86.08;92407.13;5000696;28;20712;-75
2020/12/29 05:36:55;;;;;;;0.67;0.30;;;;;;;-0.05;85.91;92409.84;5013723;28;20237;-75
2020/12/29 05:39:22;;;;;;;0.57;0.40;;;;;;;-0.01;86.00;92409.34;5013627;28;20218;-74
2020/12/29 05:41:49;;;;;;;2.47;1.60;;;;;;;-0.07;86.22;92409.22;5013765;28;20178;-75
2020/12/29 05:44:31;;;;;;;1.07;0.97;;;;;;;0.00;85.89;92417.84;5012660;28;20235;-75
2020/12/29 05:46:57;;;;;;;1.50;0.80;;;;;;;-0.04;85.89;92426.75;5010056;28;20292;-75
2020/12/29 05:49:23;;;;;;;0.30;0.30;;;;;;;-0.02;85.84;92427.38;5011615;28;20182;-75
2020/12/29 05:51:50;;;;;;;0.67;0.40;;;;;;;-0.05;85.96;92427.72;5013743;28;20687;-75
2020/12/29 05:54:16;;;;;;;0.30;0.30;;;;;;;-0.01;85.66;92446.81;4997250;28;20187;-75
2020/12/29 05:56:42;;;;;;;0.40;0.40;;;;;;;-0.02;85.91;92450.34;5019682;28;20325;-75
2020/12/29 05:59:07;;;;;;;0.50;0.37;;;;;;;0.02;85.67;92453.38;5012361;28;20184;-75
2020/12/29 06:01:41;;;;;;;0.93;0.53;;;;;;;0.03;85.34;92457.53;5013388;28;20185;-76
2020/12/29 06:04:07;;;;;;;0.50;0.47;;;;;;;-0.01;85.46;92469.78;5013436;28;20253;-75
2020/12/29 06:06:35;;;;;;;0.33;0.30;;;;;;;0.02;85.39;92474.59;5013498;28;20206;-75
2020/12/29 06:09:02;;;;;;;0.87;0.50;;;;;;;-0.05;85.92;92483.81;5012958;28;20181;-75
2020/12/29 06:11:36;;;;;;;0.30;0.30;;;;;;;-0.06;86.05;92489.88;4996803;28;20576;-75
2020/12/29 06:14:01;;;;;;;0.43;0.43;;;;;;;-0.12;86.08;92498.16;5013146;28;20646;-76
2020/12/29 06:16:31;;;;;;;0.40;0.40;;;;;;;-0.04;86.08;92505.81;5011203;28;20213;-76
2020/12/29 06:18:58;;;;;;;0.40;0.40;;;;;;;-0.05;85.89;92522.09;5014085;28;20555;-76
2020/12/29 06:21:27;;;;;;;3.73;0.57;;;;;;;-0.12;86.28;92524.47;4996246;28;20574;-76
2020/12/29 06:23:55;;;;;;;1.37;0.63;;;;;;;-0.08;85.91;92535.97;4993534;28;20184;-76
2020/12/29 06:26:20;;;;;;;0.93;0.50;;;;;;;-0.16;86.27;92541.06;4994085;28;20546;-76
2020/12/29 06:28:48;;;;;;;0.70;0.60;;;;;;;-0.26;86.51;92555.69;5015527;28;20201;-76
2020/12/29 06:31:34;;;;;;;0.67;0.60;;;;;;;-0.40;86.78;92551.97;5012842;28;20203;-76
2020/12/29 06:34:02;;;;;;;20.13;7.47;;;;;;;-0.46;86.79;92557.69;5012444;28;20207;-76
2020/12/29 06:36:28;;;;;;;3.60;1.83;;;;;;;-0.45;87.25;92554.19;5012656;28;20666;-76
2020/12/29 06:38:58;;;;;;;3.63;1.90;;;;;;;-0.57;87.11;92568.19;5026904;28;20308;-76
2020/12/29 06:41:24;;;;;;;3.13;2.50;;;;;;;-0.64;87.55;92575.63;5018228;28;20184;-75
2020/12/29 06:43:49;;;;;;;1.30;1.10;;;;;;;-0.67;87.73;92583.59;4999242;28;20230;-75
2020/12/29 06:46:15;;;;;;;6.03;3.07;;;;;;;-0.70;87.99;92593.31;4994264;28;20203;-76
2020/12/29 06:48:41;;;;;;;23.30;7.50;;;;;;;-0.68;87.99;92594.75;4994862;28;20246;-75
2020/12/29 06:51:11;;;;;;;13.70;5.20;;;;;;;-0.73;87.98;92596.13;5012239;28;20561;-76
2020/12/29 06:53:43;;;;;;;21.07;8.03;;;;;;;-0.72;88.32;92598.53;5009270;28;20180;-75
2020/12/29 06:56:16;;;;;;;5.50;3.37;;;;;;;-0.75;88.22;92598.03;4976682;28;20234;-76
2020/12/29 06:58:41;;;;;;;9.07;3.60;;;;;;;-0.78;88.34;92608.53;4992590;28;20187;-75
2020/12/29 07:01:24;;;;;;;2.50;2.03;;;;;;;-0.81;88.36;92607.06;5016416;28;20712;-76
2020/12/29 07:04:00;;;;;;;2.87;1.70;;;;;;;-0.83;88.27;92626.03;4992816;28;20641;-76
2020/12/29 07:06:29;;;;;;;1.50;1.30;;;;;;;-0.80;88.42;92634.16;4992912;28;20246;-76
2020/12/29 07:09:11;;;;;;;1.80;1.50;;;;;;;-0.87;88.28;92639.06;4991857;28;20529;-76
2020/12/29 07:11:36;;;;;;;1.40;0.80;;;;;;;-0.88;88.34;92644.31;5009827;28;20207;-76
2020/12/29 07:14:05;;;;;;;1.10;1.00;;;;;;;-0.88;88.68;92655.31;4996880;28;20191;-76
2020/12/29 07:16:31;;;;;;;0.70;0.70;;;;;;;-0.93;88.50;92657.50;4992396;28;20210;-76
2020/12/29 07:19:10;;;;;;;2.50;1.20;;;;;;;-0.93;88.63;92665.13;4975894;28;20176;-76
2020/12/29 07:21:36;;;;;;;1.27;1.17;;;;;;;-0.92;88.86;92684.56;5002255;28;20179;-76
2020/12/29 07:24:04;;;;;;;0.80;0.80;;;;;;;-0.89;88.89;92691.91;5011856;28;20196;-76
2020/12/29 07:26:29;;;;;;;1.70;0.80;;;;;;;-0.89;88.94;92696.19;5012450;28;20687;-76
2020/12/29 07:28:56;;;;;;;2.53;1.00;;;;;;;-0.89;88.96;92699.53;4995063;28;20226;-77
2020/12/29 07:31:21;;;;;;;0.93;0.80;;;;;;;-0.86;89.10;92708.66;5009915;28;20269;-76
2020/12/29 07:33:53;;;;;;;0.53;0.50;;;;;;;-0.78;88.63;92710.47;5034740;28;20181;-76
2020/12/29 07:36:20;;;;;;;0.50;0.50;;;;;;;-0.79;88.57;92719.06;5027832;28;20202;-76
2020/12/29 07:38:47;;;;;;;0.63;0.60;;;;;;;-0.70;88.44;92728.38;5012588;28;20183;-75
2020/12/29 07:41:16;;;;;;;0.60;0.60;;;;;;;-0.71;88.70;92731.84;5012914;28;20178;-78
2020/12/29 07:43:42;;;;;;;0.80;0.80;;;;;;;-0.71;88.33;92739.47;5010389;28;20195;-76
2020/12/29 07:46:07;;;;;;;2.73;0.90;;;;;;;-0.67;88.37;92746.69;4995431;28;20199;-76
2020/12/29 07:48:34;;;;;;;0.50;0.50;;;;;;;-0.59;87.90;92758.69;4991700;28;20271;-76
2020/12/29 07:51:00;;;;;;;0.30;0.30;;;;;;;-0.61;87.65;92758.06;4991686;28;20633;-75
2020/12/29 07:53:25;;;;;;;0.63;0.50;;;;;;;-0.66;87.73;92757.69;4999187;28;20268;-76
2020/12/29 07:55:51;;;;;;;0.40;0.40;;;;;;;-0.66;87.91;92760.22;5011413;28;20285;-76
2020/12/29 07:58:16;;;;;;;0.40;0.40;;;;;;;-0.62;87.71;92781.91;5012504;28;20178;-75
2020/12/29 08:00:42;;;;;;;1.00;0.73;;;;;;;-0.60;87.74;92780.03;5011250;28;20643;-77
2020/12/29 08:03:07;;;;;;;1.77;1.53;;;;;;;-0.64;87.80;92797.34;4989771;28;20201;-75
2020/12/29 08:05:34;;;;;;;1.20;0.97;;;;;;;-0.60;87.86;92800.44;5008704;28;20205;-76
2020/12/29 08:07:59;;;;;;;2.00;1.30;;;;;;;-0.59;87.93;92804.56;4992619;28;20179;-75
2020/12/29 08:10:30;;;;;;;1.20;1.00;;;;;;;-0.59;88.21;92813.03;4994253;28;20269;-76
2020/12/29 08:12:57;;;;;;;1.57;1.30;;;;;;;-0.55;87.90;92828.81;5011002;28;20708;-75
2020/12/29 08:15:27;;;;;;;1.70;1.20;;;;;;;-0.48;87.66;92829.81;5009880;28;20210;-76
2020/12/29 08:18:05;;;;;;;4.13;1.60;;;;;;;-0.46;87.56;92837.31;4997078;28;20275;-75
2020/12/29 08:20:31;;;;;;;0.93;0.53;;;;;;;-0.38;86.34;92839.94;4974585;28;20644;-75
2020/12/29 08:23:04;;;;;;;0.40;0.40;;;;;;;-0.31;85.85;92838.41;4991246;28;20186;-75
2020/12/29 08:25:30;;;;;;;0.63;0.57;;;;;;;-0.23;85.08;92842.75;4998608;28;20296;-75
2020/12/29 08:27:57;;;;;;;0.53;0.40;;;;;;;-0.25;85.41;92857.41;5010769;28;20179;-75
2020/12/29 08:30:24;;;;;;;0.77;0.50;;;;;;;-0.25;85.31;92850.56;5011592;28;20747;-76
2020/12/29 08:32:52;;;;;;;2.30;0.90;;;;;;;-0.23;84.99;92856.31;5010417;28;20697;-76
2020/12/29 08:35:18;;;;;;;0.60;0.60;;;;;;;-0.15;84.86;92856.38;5009123;28;20275;-76
2020/12/29 08:38:04;;;;;;;1.20;0.53;;;;;;;-0.17;84.61;92865.13;5010772;28;20321;-76
2020/12/29 08:40:33;;;;;;;0.77;0.60;;;;;;;-0.09;83.93;92865.16;5009825;28;20231;-74
2020/12/29 08:43:00;;;;;;;0.70;0.63;;;;;;;-0.06;83.81;92880.19;5010760;28;20178;-76
2020/12/29 08:45:27;;;;;;;1.57;1.00;;;;;;;-0.07;83.43;92891.34;5010701;28;20213;-76
2020/12/29 08:47:55;;;;;;;0.77;0.70;;;;;;;-0.10;83.67;92883.97;5009059;28;20187;-74
2020/12/29 08:50:32;;;;;;;1.43;0.77;;;;;;;-0.02;83.34;92897.59;4992756;28;20204;-74
2020/12/29 08:53:03;;;;;;;0.70;0.70;;;;;;;-0.06;83.58;92911.59;4990672;28;20172;-74
2020/12/29 08:55:31;;;;;;;0.60;0.50;;;;;;;-0.02;83.52;92918.00;5006991;28;20207;-74
2020/12/29 08:57:57;;;;;;;1.33;0.70;;;;;;;-0.02;83.96;92935.06;5008435;28;20655;-74
2020/12/29 09:00:25;;;;;;;0.50;0.50;;;;;;;-0.02;83.78;92945.25;5010275;28;20546;-75
2020/12/29 09:02:50;;;;;;;0.70;0.67;;;;;;;0.02;83.46;92953.44;5010437;28;20179;-75
2020/12/29 09:05:23;;;;;;;1.10;1.00;;;;;;;-0.01;83.73;92960.41;4993216;28;20214;-75
2020/12/29 09:07:48;;;;;;;0.90;0.90;;;;;;;0.01;83.68;92973.06;5007947;28;20195;-75
2020/12/29 09:10:15;;;;;;;0.77;0.70;;;;;;;0.02;83.63;92984.88;5009871;28;20573;-74
2020/12/29 09:12:40;;;;;;;1.17;1.10;;;;;;;-0.03;83.85;92985.28;5010333;28;20172;-75
2020/12/29 09:15:10;;;;;;;0.53;0.53;;;;;;;0.03;83.45;93003.53;4993905;28;20180;-75
2020/12/29 09:17:39;;;;;;;1.10;0.83;;;;;;;0.05;83.62;93004.97;4993861;28;20187;-76
2020/12/29 09:20:24;;;;;;;1.60;1.17;;;;;;;0.06;83.70;93010.88;4993092;28;20639;-74
2020/12/29 09:23:03;;;;;;;1.63;1.00;;;;;;;0.16;83.52;93026.91;4990367;28;20210;-74
2020/12/29 09:25:36;;;;;;;5.03;3.13;;;;;;;0.22;83.48;93026.31;4991896;28;20254;-74
2020/12/29 09:28:19;;;;;;;4.00;2.33;;;;;;;0.25;83.63;93041.34;4991862;28;20179;-74
2020/12/29 09:30:47;;;;;;;0.50;0.50;;;;;;;0.26;83.84;93063.34;5023514;28;20218;-75
2020/12/29 09:33:19;;;;;;;1.00;0.90;;;;;;;0.17;83.99;93061.69;4995007;28;20261;-75
2020/12/29 09:35:44;;;;;;;1.33;1.00;;;;;;;0.11;83.61;93065.63;4995513;28;20200;-74
2020/12/29 09:38:12;;;;;;;0.60;0.60;;;;;;;0.05;83.88;93073.06;4995459;28;20214;-74
2020/12/29 09:40:37;;;;;;;0.47;0.47;;;;;;;-0.03;83.76;93079.69;5004981;28;20189;-74
2020/12/29 09:43:02;;;;;;;0.40;0.40;;;;;;;0.00;84.52;93078.63;5013655;28;20191;-74
2020/12/29 09:45:27;;;;;;;0.80;0.80;;;;;;;-0.01;84.40;93089.75;5014834;28;20666;-74
2020/12/29 09:47:53;;;;;;;1.77;1.13;;;;;;;-0.05;84.19;93102.00;4995305;28;20198;-74
2020/12/29 09:50:18;;;;;;;1.83;1.20;;;;;;;0.03;84.38;93111.50;5014321;28;20235;-75
2020/12/29 09:52:44;;;;;;;2.20;1.80;;;;;;;0.01;84.67;93115.94;5013647;28;20238;-74
2020/12/29 09:55:09;;;;;;;2.70;1.83;;;;;;;0.00;84.29;93114.34;5013331;28;20189;-74
2020/12/29 09:57:34;;;;;;;5.70;2.77;;;;;;;-0.06;84.52;93125.09;5013497;28;20189;-76
2020/12/29 10:00:00;;;;;;;7.40;3.43;;;;;;;0.06;84.26;93126.50;5011255;28;20225;-75
2020/12/29 10:02:25;;;;;;;15.40;6.43;;;;;;;0.07;83.71;93124.75;5013329;28;20197;-75
2020/12/29 10:04:51;;;;;;;7.40;3.47;;;;;;;0.17;83.28;93136.50;5013395;28;20189;-75
2020/12/29 10:07:16;;;;;;;4.43;2.43;;;;;;;0.22;83.05;93141.19;5013410;28;20230;-75
2020/12/29 10:09:42;;;;;;;7.13;3.70;;;;;;;0.25;82.91;93138.34;5013788;28;20194;-75
2020/12/29 10:12:07;;;;;;;6.97;4.20;;;;;;;0.27;83.25;93147.47;5033476;28;20195;-75
2020/12/29 10:14:32;;;;;;;2.00;1.67;;;;;;;0.33;82.58;93150.38;5011910;28;20675;-75
2020/12/29 10:16:58;;;;;;;1.53;1.10;;;;;;;0.39;82.46;93153.16;5014928;28;20714;-74
2020/12/29 10:19:23;;;;;;;3.37;1.47;;;;;;;0.44;82.36;93165.47;4976987;28;20218;-76
2020/12/29 10:21:55;;;;;;;2.90;1.77;;;;;;;0.37;81.76;93160.19;5009547;28;20198;-75
2020/12/29 10:24:20;;;;;;;2.07;1.30;;;;;;;0.51;81.97;93163.97;4995392;28;20191;-75
2020/12/29 10:26:49;;;;;;;3.00;2.00;;;;;;;0.50;81.81;93177.69;4994459;28;20200;-75
2020/12/29 10:29:14;;;;;;;8.30;4.40;;;;;;;0.39;82.09;93185.56;4992979;28;20188;-73
2020/12/29 10:31:39;;;;;;;3.70;2.10;;;;;;;0.44;81.88;93189.28;5003726;28;20237;-75
2020/12/29 10:34:05;;;;;;;1.93;1.40;;;;;;;0.48;81.42;93193.16;5013801;28;20685;-74
2020/12/29 10:36:34;;;;;;;1.70;1.30;;;;;;;0.46;81.49;93202.72;5013687;28;20212;-74
2020/12/29 10:38:59;;;;;;;2.47;2.10;;;;;;;0.55;81.44;93211.25;5012118;28;20201;-74
2020/12/29 10:41:32;;;;;;;3.40;2.07;;;;;;;0.43;81.33;93212.38;5011868;28;20691;-74
2020/12/29 10:43:57;;;;;;;1.50;1.40;;;;;;;0.36;81.73;93221.59;5007146;28;20202;-74
2020/12/29 10:46:23;;;;;;;1.60;1.50;;;;;;;0.33;81.60;93222.66;5012580;28;20675;-74
2020/12/29 10:48:49;;;;;;;4.17;3.43;;;;;;;0.34;81.94;93228.56;5028788;28;20546;-74
2020/12/29 10:51:18;;;;;;;3.70;2.60;;;;;;;0.39;82.03;93241.72;5013585;28;20293;-74
2020/12/29 10:53:43;;;;;;;1.77;1.20;;;;;;;0.20;81.36;93243.44;5010238;28;20241;-73
2020/12/29 10:56:09;;;;;;;2.27;1.23;;;;;;;0.22;81.71;93246.63;4995931;28;20212;-73
2020/12/29 10:58:34;;;;;;;2.60;1.27;;;;;;;0.19;81.64;93253.78;4992275;28;20216;-75
2020/12/29 11:01:00;;;;;;;2.33;1.13;;;;;;;0.19;81.82;93253.78;4992532;28;20176;-73
2020/12/29 11:03:25;;;;;;;2.00;1.80;;;;;;;0.14;81.22;93259.31;4998761;28;20199;-73
2020/12/29 11:05:50;;;;;;;4.33;1.43;;;;;;;0.17;81.59;93258.19;5028332;28;20218;-74
2020/12/29 11:08:16;;;;;;;1.83;1.40;;;;;;;0.17;82.03;93264.09;5013242;28;20645;-74
2020/12/29 11:10:41;;;;;;;3.77;1.80;;;;;;;0.25;81.57;93264.22;5012300;28;20211;-74
2020/12/29 11:13:06;;;;;;;7.40;5.10;;;;;;;0.36;81.16;93259.91;5011568;28;20191;-74
2020/12/29 11:15:33;;;;;;;23.87;13.17;;;;;;;0.35;81.22;93263.38;5026791;28;20242;-74
2020/12/29 11:17:59;;;;;;;1.43;1.13;;;;;;;0.39;80.20;93262.16;5004766;28;20187;-75
2020/12/29 11:20:24;;;;;;;2.73;1.80;;;;;;;0.52;80.55;93272.81;5008870;28;20236;-74
2020/12/29 11:22:50;;;;;;;3.30;1.60;;;;;;;0.66;80.19;93263.88;5011140;28;20281;-74
2020/12/29 11:25:15;;;;;;;3.93;2.07;;;;;;;0.67;80.06;93275.69;5018106;28;20214;-74
2020/12/29 11:27:40;;;;;;;4.33;2.17;;;;;;;0.62;79.90;93271.03;5011639;28;20191;-76
2020/12/29 11:30:06;;;;;;;4.67;2.40;;;;;;;0.55;79.65;93278.47;5012045;28;20214;-75
2020/12/29 11:32:31;;;;;;;4.70;2.70;;;;;;;0.61;80.55;93276.25;5013027;28;20190;-74
2020/12/29 11:34:56;;;;;;;5.10;2.40;;;;;;;0.67;80.00;93268.84;5011074;28;20604;-72